createdAt,value
2018-03-04T00:01:08.130Z,76.70
2018-03-04T00:03:35.573Z,76.70
2018-03-04T00:06:03.041Z,76.70
2018-03-04T00:08:30.508Z,76.80
2018-03-04T00:10:58.209Z,76.70
2018-03-04T00:13:26.410Z,76.90
2018-03-04T00:15:53.893Z,76.70
2018-03-04T00:18:22.336Z,76.80
2018-03-04T00:20:49.780Z,76.80
2018-03-04T00:23:17.288Z,76.90
2018-03-04T00:25:44.734Z,76.90
2018-03-04T00:28:12.181Z,77.00
2018-03-04T00:30:39.744Z,77.10
2018-03-04T00:33:07.209Z,77.10
2018-03-04T00:35:34.653Z,77.10
2018-03-04T00:38:02.259Z,77.30
2018-03-04T00:40:29.703Z,77.20
2018-03-04T00:42:57.175Z,77.40
2018-03-04T00:45:24.760Z,77.40
2018-03-04T00:47:52.977Z,77.70
2018-03-04T00:50:20.423Z,77.60
2018-03-04T00:52:48.060Z,77.80
2018-03-04T00:55:16.261Z,78.10
2018-03-04T00:57:44.465Z,78.60
2018-03-04T01:00:18.605Z,78.20
2018-03-04T01:02:46.053Z,78.30
2018-03-04T01:05:13.545Z,78.30
2018-03-04T01:07:41.756Z,78.60
2018-03-04T01:10:09.197Z,78.50
2018-03-04T01:12:36.736Z,78.80
2018-03-04T01:15:11.489Z,79.10
2018-03-04T01:17:38.952Z,79.10
2018-03-04T01:20:10.216Z,79.20
2018-03-04T01:22:37.672Z,79.20
2018-03-04T01:25:05.115Z,79.30
2018-03-04T01:27:32.929Z,79.30
2018-03-04T01:30:00.373Z,79.50
2018-03-04T01:32:27.817Z,79.50
2018-03-04T01:34:55.296Z,79.70
2018-03-04T01:37:22.733Z,79.80
2018-03-04T01:39:50.247Z,79.90
2018-03-04T01:42:17.697Z,80.00
2018-03-04T01:44:46.057Z,80.30
2018-03-04T01:47:13.545Z,80.30
2018-03-04T01:49:41.793Z,80.50
2018-03-04T01:52:09.255Z,80.40
2018-03-04T01:54:36.699Z,80.50
2018-03-04T01:57:04.170Z,81.20
2018-03-04T01:59:31.605Z,80.70
2018-03-04T02:01:59.200Z,80.80
2018-03-04T02:04:27.441Z,81.00
2018-03-04T02:06:54.897Z,81.00
2018-03-04T02:09:22.341Z,81.10
2018-03-04T02:11:51.133Z,81.10
2018-03-04T02:14:18.585Z,81.30
2018-03-04T02:16:46.030Z,81.40
2018-03-04T02:19:13.607Z,81.60
2018-03-04T02:21:41.072Z,81.70
2018-03-04T02:29:50.928Z,81.90
2018-03-04T02:32:18.428Z,81.90
2018-03-04T02:34:45.865Z,81.90
2018-03-04T02:37:13.309Z,82.10
2018-03-04T02:39:40.780Z,82.10
2018-03-04T02:42:08.318Z,82.30
2018-03-04T02:44:35.770Z,82.30
2018-03-04T02:47:03.238Z,82.40
2018-03-04T02:49:30.692Z,82.40
2018-03-04T02:51:58.153Z,82.50
2018-03-04T02:54:25.614Z,82.50
2018-03-04T02:56:53.184Z,82.60
2018-03-04T02:59:20.632Z,82.90
2018-03-04T03:01:48.069Z,82.90
2018-03-04T03:04:15.536Z,82.90
2018-03-04T03:06:43.006Z,83.00
2018-03-04T03:09:10.452Z,83.00
2018-03-04T03:11:37.924Z,83.20
2018-03-04T03:14:05.372Z,83.30
2018-03-04T03:16:32.824Z,83.30
2018-03-04T03:19:11.373Z,83.40
2018-03-04T03:21:38.889Z,83.40
2018-03-04T03:24:06.321Z,83.50
2018-03-04T03:26:33.988Z,83.60
2018-03-04T03:29:02.225Z,83.70
2018-03-04T03:31:29.657Z,83.70
2018-03-04T03:34:02.168Z,83.70
2018-03-04T03:36:29.614Z,83.90
2018-03-04T03:38:57.056Z,84.00
2018-03-04T03:41:24.520Z,84.00
2018-03-04T03:43:51.961Z,84.00
2018-03-04T03:46:19.432Z,84.40
2018-03-04T03:48:46.872Z,84.30
2018-03-04T03:51:14.520Z,84.50
2018-03-04T03:53:41.962Z,84.60
2018-03-04T03:56:10.197Z,84.60
2018-03-04T03:58:37.657Z,84.60
2018-03-04T04:01:05.107Z,84.80
2018-03-04T04:03:32.571Z,85.10
2018-03-04T04:06:00.013Z,85.00
2018-03-04T04:08:27.456Z,85.30
2018-03-04T04:10:55.114Z,85.10
2018-03-04T04:13:22.554Z,85.00
2018-03-04T04:15:50.036Z,85.00
2018-03-04T04:18:17.497Z,85.20
2018-03-04T04:20:44.996Z,85.10
2018-03-04T04:23:12.441Z,85.50
2018-03-04T04:25:39.964Z,85.40
2018-03-04T04:28:07.493Z,85.40
2018-03-04T04:30:35.827Z,85.50
2018-03-04T04:33:03.266Z,85.50
2018-03-04T04:35:30.723Z,85.60
2018-03-04T04:37:58.185Z,85.60
2018-03-04T04:40:25.678Z,85.80
2018-03-04T04:42:53.128Z,85.80
2018-03-04T04:45:20.569Z,85.80
2018-03-04T04:47:48.210Z,85.90
2018-03-04T04:50:15.664Z,85.90
2018-03-04T04:52:43.105Z,85.90
2018-03-04T04:55:10.569Z,86.00
2018-03-04T04:57:38.065Z,86.10
2018-03-04T05:00:05.501Z,86.00
2018-03-04T05:02:32.950Z,86.20
2018-03-04T05:05:00.545Z,86.20
2018-03-04T05:07:28.008Z,86.20
2018-03-04T05:09:55.452Z,86.30
2018-03-04T05:12:23.048Z,86.40
2018-03-04T05:14:51.259Z,86.50
2018-03-04T05:17:18.730Z,86.50
2018-03-04T05:19:46.177Z,86.50
2018-03-04T05:22:13.972Z,86.50
2018-03-04T05:24:41.525Z,86.60
2018-03-04T05:27:09.000Z,86.50
2018-03-04T05:29:36.444Z,86.70
2018-03-04T05:32:03.932Z,86.70
2018-03-04T05:34:31.372Z,86.70
2018-03-04T05:36:59.668Z,86.80
2018-03-04T05:39:27.112Z,86.80
2018-03-04T05:41:54.588Z,86.90
2018-03-04T05:44:22.905Z,87.00
2018-03-04T05:46:50.357Z,86.80
2018-03-04T05:49:17.964Z,87.10
2018-03-04T05:51:45.417Z,87.00
2018-03-04T05:54:13.625Z,87.20
2018-03-04T05:56:42.073Z,87.20
2018-03-04T05:59:09.532Z,87.20
2018-03-04T06:01:37.082Z,87.30
2018-03-04T06:04:05.432Z,87.50
2018-03-04T06:06:32.896Z,87.30
2018-03-04T06:09:00.356Z,87.40
2018-03-04T06:11:27.800Z,87.40
2018-03-04T06:13:55.539Z,87.50
2018-03-04T06:16:22.993Z,87.50
2018-03-04T06:18:50.624Z,87.60
2018-03-04T06:21:18.829Z,87.60
2018-03-04T06:23:46.269Z,87.50
2018-03-04T06:26:13.743Z,87.60
2018-03-04T06:28:41.232Z,87.70
2018-03-04T06:31:08.691Z,87.60
2018-03-04T06:33:36.130Z,87.80
2018-03-04T06:36:03.729Z,87.80
2018-03-04T06:38:33.131Z,87.90
2018-03-04T06:41:00.618Z,87.90
2018-03-04T06:43:28.818Z,87.90
2018-03-04T06:45:56.285Z,87.90
2018-03-04T06:48:23.793Z,87.90
2018-03-04T06:50:52.336Z,88.10
2018-03-04T06:53:19.776Z,88.00
2018-03-04T06:55:58.116Z,88.10
2018-03-04T06:58:25.556Z,88.20
2018-03-04T07:00:53.063Z,88.20
2018-03-04T07:03:21.285Z,88.30
2018-03-04T07:05:48.740Z,88.20
2018-03-04T07:08:16.269Z,88.40
2018-03-04T07:10:53.716Z,88.40
2018-03-04T07:13:21.165Z,88.40
2018-03-04T07:15:48.693Z,88.40
2018-03-04T07:18:16.142Z,88.40
2018-03-04T07:20:45.675Z,88.50
2018-03-04T07:23:13.114Z,88.50
2018-03-04T07:25:40.577Z,88.60
2018-03-04T07:28:15.304Z,88.60
2018-03-04T07:30:42.976Z,88.60
2018-03-04T07:33:10.552Z,88.80
2018-03-04T07:35:38.021Z,88.80
2018-03-04T07:38:05.476Z,88.80
2018-03-04T07:40:32.999Z,88.90
2018-03-04T07:43:00.426Z,88.90
2018-03-04T07:45:27.860Z,88.80
2018-03-04T07:47:55.334Z,88.90
2018-03-04T07:50:22.794Z,88.70
2018-03-04T07:52:50.304Z,88.80
2018-03-04T07:55:17.753Z,88.80
2018-03-04T07:57:45.228Z,88.90
2018-03-04T08:00:12.686Z,88.80
2018-03-04T08:02:40.157Z,88.90
2018-03-04T08:05:11.525Z,88.70
2018-03-04T08:07:39.067Z,88.70
2018-03-04T08:10:06.509Z,88.60
2018-03-04T08:12:34.017Z,88.60
2018-03-04T08:15:02.246Z,88.40
2018-03-04T08:17:29.985Z,88.40
2018-03-04T08:19:57.459Z,88.40
2018-03-04T08:22:25.120Z,88.40
2018-03-04T08:25:04.471Z,88.40
2018-03-04T08:27:43.718Z,88.50
2018-03-04T08:30:11.155Z,88.30
2018-03-04T08:32:38.629Z,88.30
2018-03-04T08:35:06.089Z,88.30
2018-03-04T08:37:33.535Z,88.10
2018-03-04T08:40:01.212Z,88.10
2018-03-04T08:42:28.870Z,88.20
2018-03-04T08:44:56.300Z,88.20
2018-03-04T08:47:23.996Z,88.10
2018-03-04T08:49:51.433Z,88.10
2018-03-04T08:52:18.863Z,88.10
2018-03-04T08:54:47.011Z,88.40
2018-03-04T08:57:14.432Z,88.30
2018-03-04T08:59:42.227Z,88.10
2018-03-04T09:02:10.439Z,87.70
2018-03-04T09:04:37.877Z,87.60
2018-03-04T09:07:05.453Z,87.70
2018-03-04T09:09:33.268Z,87.90
2018-03-04T09:12:00.680Z,88.10
2018-03-04T09:14:29.694Z,88.10
2018-03-04T09:16:57.133Z,87.90
2018-03-04T09:19:24.865Z,87.70
2018-03-04T09:21:52.538Z,87.50
2018-03-04T09:24:20.872Z,87.10
2018-03-04T09:26:48.329Z,87.10
2018-03-04T09:29:15.801Z,86.90
2018-03-04T09:31:43.378Z,86.80
2018-03-04T09:34:10.828Z,86.80
2018-03-04T09:36:38.353Z,86.80
2018-03-04T09:39:05.801Z,86.50
2018-03-04T09:41:33.288Z,86.40
2018-03-04T09:44:00.732Z,86.40
2018-03-04T09:46:28.201Z,86.50
2018-03-04T09:48:55.657Z,86.40
2018-03-04T09:51:23.140Z,86.30
2018-03-04T09:53:51.363Z,85.80
2018-03-04T09:56:33.018Z,85.80
2018-03-04T09:59:03.341Z,85.70
2018-03-04T10:01:30.846Z,85.80
2018-03-04T10:04:06.013Z,85.60
2018-03-04T10:06:56.856Z,85.40
2018-03-04T10:09:24.316Z,85.40
2018-03-04T10:11:59.613Z,85.10
2018-03-04T10:17:09.900Z,84.70
2018-03-04T10:19:39.188Z,84.50
2018-03-04T10:22:08.746Z,84.50
2018-03-04T10:24:40.083Z,84.20
2018-03-04T10:27:12.376Z,84.30
2018-03-04T10:29:55.295Z,84.20
2018-03-04T10:32:41.211Z,84.00
2018-03-04T10:35:09.283Z,84.00
2018-03-04T10:37:37.382Z,84.00
2018-03-04T10:40:06.678Z,84.50
2018-03-04T10:42:34.289Z,84.40
2018-03-04T10:45:17.861Z,84.30
2018-03-04T10:47:55.390Z,83.50
2018-03-04T11:17:50.072Z,79.20
2018-03-04T11:20:17.538Z,79.20
2018-03-04T11:22:44.993Z,79.00
2018-03-04T11:25:12.646Z,79.00
2018-03-04T11:27:40.125Z,79.20
2018-03-04T11:30:09.181Z,79.30
2018-03-04T11:32:37.438Z,79.10
2018-03-04T11:35:04.894Z,79.00
2018-03-04T11:37:32.486Z,78.70
2018-03-04T11:40:02.639Z,78.30
2018-03-04T11:42:30.149Z,78.20
2018-03-04T11:44:58.554Z,77.50
2018-03-04T11:47:25.993Z,77.40
2018-03-04T11:49:54.208Z,77.00
2018-03-04T11:52:21.701Z,76.80
2018-03-04T11:54:49.161Z,76.60
2018-03-04T11:57:16.613Z,76.70
2018-03-04T11:59:44.091Z,76.10
2018-03-04T12:02:11.761Z,75.60
2018-03-04T12:04:39.269Z,75.40
2018-03-04T12:07:06.788Z,75.10
2018-03-04T12:09:35.078Z,75.40
2018-03-04T12:12:02.493Z,75.40
2018-03-04T12:14:33.592Z,75.30
2018-03-04T12:17:01.138Z,75.20
2018-03-04T12:19:28.594Z,74.70
2018-03-04T12:22:00.666Z,74.40
2018-03-04T12:24:28.905Z,74.00
2018-03-04T12:26:57.192Z,73.10
2018-03-04T12:29:28.533Z,73.00
2018-03-04T12:31:56.024Z,72.90
2018-03-04T12:34:23.498Z,72.60
2018-03-04T12:36:54.017Z,72.40
2018-03-04T12:39:21.492Z,72.30
2018-03-04T12:41:49.389Z,72.20
2018-03-04T12:44:30.605Z,72.60
2018-03-04T12:46:58.178Z,71.70
2018-03-04T12:49:25.649Z,71.30
2018-03-04T12:51:53.897Z,71.00
2018-03-04T12:54:22.141Z,70.80
2018-03-04T12:56:49.593Z,70.80
2018-03-04T12:59:17.062Z,70.50
2018-03-04T13:01:44.579Z,70.20
2018-03-04T13:04:12.029Z,69.70
2018-03-04T13:06:39.489Z,69.50
2018-03-04T13:09:15.988Z,69.40
2018-03-04T13:11:43.492Z,69.40
2018-03-04T13:14:11.748Z,67.80
2018-03-04T13:16:39.454Z,67.70
2018-03-04T13:19:06.995Z,67.50
2018-03-04T13:21:34.477Z,67.30
2018-03-04T13:24:04.095Z,67.00
2018-03-04T13:26:31.733Z,67.00
2018-03-04T13:28:59.770Z,66.80
2018-03-04T13:31:27.341Z,66.80
2018-03-04T13:33:57.995Z,66.60
2018-03-04T13:36:27.262Z,66.50
2018-03-04T13:38:55.606Z,66.40
2018-03-04T13:41:23.186Z,66.20
2018-03-04T13:43:50.722Z,65.80
2018-03-04T13:46:18.229Z,65.40
2018-03-04T13:48:45.741Z,64.80
2018-03-04T13:51:13.370Z,64.60
2018-03-04T13:53:40.874Z,64.30
2018-03-04T13:56:08.368Z,64.20
2018-03-04T13:58:35.934Z,63.80
2018-03-04T14:01:04.186Z,63.30
2018-03-04T14:03:31.682Z,63.30
2018-03-04T14:23:03.322Z,62.60
2018-03-04T14:25:31.159Z,62.40
2018-03-04T14:28:05.384Z,62.00
2018-03-04T14:30:32.873Z,62.00
2018-03-04T14:35:54.455Z,62.40
2018-03-04T14:38:21.921Z,62.40
2018-03-04T14:40:49.917Z,62.10
2018-03-04T14:43:17.390Z,62.10
2018-03-04T14:48:35.294Z,62.30
2018-03-04T14:51:15.549Z,62.30
2018-03-04T14:53:43.004Z,62.20
2018-03-04T14:56:10.573Z,62.20
2018-03-04T14:58:38.029Z,62.50
2018-03-04T15:01:05.510Z,62.40
2018-03-04T15:03:33.057Z,62.40
2018-03-04T15:06:00.617Z,62.40
2018-03-04T15:08:28.230Z,62.40
2018-03-04T15:10:56.481Z,62.30
2018-03-04T15:13:24.052Z,62.20
2018-03-04T15:15:51.537Z,62.20
2018-03-04T15:18:18.981Z,62.10
2018-03-04T15:20:52.341Z,63.40
2018-03-04T15:23:19.840Z,63.40
2018-03-04T15:25:47.392Z,63.50
2018-03-04T15:28:15.596Z,63.60
2018-03-04T15:30:43.091Z,63.60
2018-03-04T15:33:10.567Z,63.70
2018-03-04T15:35:38.011Z,63.90
2018-03-04T15:38:05.777Z,63.90
2018-03-04T15:40:33.244Z,63.90
2018-03-04T15:43:00.750Z,64.00
2018-03-04T15:45:28.236Z,63.90
2018-03-04T15:47:55.757Z,63.90
2018-03-04T15:50:29.101Z,64.10
2018-03-04T15:52:56.589Z,64.20
2018-03-04T15:55:25.917Z,64.40
2018-03-04T15:57:53.494Z,64.40
2018-03-04T16:00:21.741Z,64.50
2018-03-04T16:02:49.310Z,64.50
2018-03-04T16:05:16.796Z,64.50
2018-03-04T16:13:34.217Z,64.60
2018-03-04T16:16:02.460Z,64.80
2018-03-04T16:18:30.317Z,64.80
2018-03-04T16:20:57.810Z,64.90
2018-03-04T16:23:26.102Z,65.10
2018-03-04T16:25:57.938Z,65.00
2018-03-04T16:28:25.397Z,65.20
2018-03-04T16:30:52.905Z,65.40
2018-03-04T16:33:21.130Z,65.50
2018-03-04T16:35:49.456Z,65.70
2018-03-04T16:38:16.956Z,65.70
2018-03-04T16:40:44.422Z,65.80
2018-03-04T16:43:11.972Z,65.90
2018-03-04T16:45:39.523Z,66.00
2018-03-04T16:48:07.029Z,66.10
2018-03-04T16:50:34.576Z,66.30
2018-03-04T16:53:02.840Z,66.40
2018-03-04T16:55:31.084Z,67.00
2018-03-04T16:57:58.720Z,66.50
2018-03-04T17:00:26.278Z,66.50
2018-03-04T17:02:53.792Z,66.80
2018-03-04T17:05:21.326Z,66.90
2018-03-04T17:07:48.817Z,67.00
2018-03-04T17:10:16.388Z,67.20
2018-03-04T17:12:44.685Z,67.40
2018-03-04T17:15:12.302Z,67.40
2018-03-04T17:17:39.822Z,67.50
2018-03-04T17:20:12.250Z,67.60
2018-03-04T17:22:39.773Z,67.70
2018-03-04T17:25:07.381Z,67.80
2018-03-04T17:27:36.077Z,68.20
2018-03-04T17:30:03.575Z,68.20
2018-03-04T17:32:31.458Z,68.40
2018-03-04T17:34:58.975Z,68.60
2018-03-04T17:37:27.302Z,68.90
2018-03-04T17:39:54.769Z,69.10
2018-03-04T17:42:22.332Z,69.30
2018-03-04T17:44:49.789Z,70.00
2018-03-04T17:47:17.325Z,70.00
2018-03-04T17:49:44.857Z,70.00
2018-03-04T17:52:12.376Z,70.30
2018-03-04T17:54:40.669Z,71.10
2018-03-04T18:02:55.101Z,72.00
2018-03-04T18:05:22.567Z,71.90
2018-03-04T18:07:50.163Z,72.30
2018-03-04T18:10:17.660Z,72.70
2018-03-04T18:12:45.279Z,72.90
2018-03-04T18:15:28.561Z,73.10
2018-03-04T18:17:56.017Z,73.40
2018-03-04T18:20:23.675Z,73.50
2018-03-04T18:22:52.552Z,73.60
2018-03-04T18:25:20.769Z,74.00
2018-03-04T18:30:38.821Z,74.10
2018-03-04T18:33:06.301Z,74.30
2018-03-04T18:35:33.762Z,74.40
2018-03-04T18:38:01.253Z,75.20
2018-03-04T18:40:28.714Z,74.70
2018-03-04T18:42:56.256Z,74.80
2018-03-04T18:45:24.461Z,75.30
2018-03-04T18:47:51.926Z,75.20
2018-03-04T18:50:19.647Z,75.30
2018-03-04T18:52:47.255Z,75.30
2018-03-04T18:55:14.696Z,75.60
2018-03-04T18:57:42.164Z,75.50
2018-03-04T19:03:00.426Z,75.70
2018-03-04T19:05:27.905Z,75.80
2018-03-04T19:07:55.396Z,75.80
2018-03-04T19:10:23.625Z,75.90
2018-03-04T19:12:51.506Z,75.90
2018-03-04T19:15:18.965Z,76.10
2018-03-04T19:17:46.559Z,76.50
2018-03-04T19:20:14.785Z,76.70
2018-03-04T19:22:42.293Z,76.70
2018-03-04T19:25:10.531Z,77.40
2018-03-04T19:27:38.001Z,77.40
2018-03-04T19:30:05.470Z,77.20
2018-03-04T19:32:32.950Z,77.20
2018-03-04T19:35:01.160Z,77.30
2018-03-04T19:37:28.784Z,77.30
2018-03-04T19:39:56.256Z,77.40
2018-03-04T19:42:23.769Z,77.50
2018-03-04T19:44:51.367Z,77.40
2018-03-04T19:47:18.854Z,77.40
2018-03-04T19:49:46.340Z,77.50
2018-03-04T19:52:13.958Z,77.40
2018-03-04T19:54:41.422Z,77.40
2018-03-04T19:57:08.912Z,77.40
2018-03-04T19:59:39.429Z,77.50
2018-03-04T20:02:06.888Z,77.40
2018-03-04T20:04:34.351Z,77.40
2018-03-04T20:07:01.850Z,77.40
2018-03-04T20:09:30.085Z,77.50
2018-03-04T20:11:57.561Z,77.50
2018-03-04T20:14:30.606Z,77.50
2018-03-04T20:16:58.838Z,77.70
2018-03-04T20:19:27.651Z,77.70
2018-03-04T20:21:55.901Z,77.60
2018-03-04T20:24:23.401Z,77.60
2018-03-04T20:26:50.921Z,77.60
2018-03-04T20:29:18.407Z,77.60
2018-03-04T20:31:46.483Z,77.60
2018-03-04T20:34:14.151Z,77.60
2018-03-04T20:36:41.767Z,77.50
2018-03-04T20:39:09.308Z,77.60
2018-03-04T20:41:36.899Z,77.60
2018-03-04T20:44:04.490Z,77.50
2018-03-04T20:46:32.077Z,77.50
2018-03-04T20:48:59.682Z,77.50
2018-03-04T20:51:27.324Z,77.50
2018-03-04T20:53:54.797Z,77.40
2018-03-04T20:56:22.269Z,77.40
2018-03-04T20:58:49.733Z,77.30
2018-03-04T21:18:21.425Z,77.10
2018-03-04T21:20:49.036Z,77.10
2018-03-04T21:23:18.794Z,77.20
2018-03-04T21:25:46.621Z,77.20
2018-03-04T21:28:15.134Z,77.60
2018-03-04T21:42:30.466Z,77.80
2018-03-04T21:44:57.951Z,78.00
2018-03-04T21:47:25.490Z,78.10
2018-03-04T21:49:53.757Z,78.50
2018-03-04T22:09:25.553Z,79.30
2018-03-04T22:28:58.116Z,80.20
2018-03-04T22:31:25.637Z,80.40
2018-03-04T22:33:53.145Z,80.60
2018-03-04T22:36:20.625Z,80.80
2018-03-04T22:38:48.109Z,81.00
2018-03-04T22:41:15.594Z,81.00
2018-03-04T23:00:47.738Z,81.70
2018-03-04T23:03:15.224Z,81.80
2018-03-04T23:05:42.876Z,81.90
2018-03-04T23:08:10.357Z,82.00
2018-03-04T23:24:51.814Z,82.60
2018-03-04T23:27:19.340Z,82.60
2018-03-04T23:29:47.669Z,83.10
2018-03-04T23:32:15.180Z,83.00
2018-03-04T23:34:43.417Z,83.40
2018-03-04T23:37:10.909Z,83.40
2018-03-04T23:39:39.153Z,83.60
2018-03-04T23:42:06.725Z,83.60
2018-03-04T23:44:34.210Z,83.80
2018-03-04T23:47:02.447Z,84.10
2018-03-04T23:49:29.921Z,84.10
2018-03-04T23:51:57.402Z,84.20
2018-03-04T23:54:25.641Z,84.50
2018-03-04T23:56:53.129Z,84.50
2018-03-04T23:59:20.585Z,84.50
